createdAt,value
2022-07-27T00:01:06.689Z,99.90
2022-07-27T00:03:34.834Z,1.00
2022-07-27T00:06:04.403Z,99.90
2022-07-27T00:08:32.399Z,99.90
2022-07-27T00:11:00.348Z,99.90
2022-07-27T00:13:28.914Z,1.00
2022-07-27T00:15:56.987Z,1.00
2022-07-27T00:18:25.040Z,1.00
2022-07-27T00:20:52.955Z,99.90
2022-07-27T00:23:22.286Z,1.00
2022-07-27T00:25:50.846Z,1.00
2022-07-27T00:28:19.230Z,52.30
2022-07-27T00:30:47.184Z,1.00
2022-07-27T00:33:18.678Z,1.00
2022-07-27T00:35:46.668Z,99.90
2022-07-27T00:38:14.605Z,1.00
2022-07-27T00:40:44.115Z,99.90
2022-07-27T00:43:12.068Z,99.90
2022-07-27T00:45:40.038Z,92.00
2022-07-27T00:48:08.058Z,1.00
2022-07-27T00:50:36.590Z,99.90
2022-07-27T00:53:05.853Z,43.00
2022-07-27T00:55:34.066Z,78.40
2022-07-27T00:58:11.926Z,99.90
2022-07-27T01:00:40.803Z,99.90
2022-07-27T01:03:09.893Z,99.90
2022-07-27T01:05:42.464Z,1.00
2022-07-27T01:08:13.720Z,99.90
2022-07-27T01:10:42.523Z,99.90
2022-07-27T01:13:17.964Z,28.90
2022-07-27T01:15:45.975Z,1.00
2022-07-27T01:18:39.433Z,99.90
2022-07-27T01:21:14.481Z,99.90
2022-07-27T01:26:40.046Z,99.90
2022-07-27T01:29:08.124Z,99.90
2022-07-27T01:31:36.700Z,1.00
2022-07-27T01:34:08.919Z,1.00
2022-07-27T01:36:38.372Z,1.00
2022-07-27T01:39:07.673Z,1.00
2022-07-27T01:41:35.994Z,1.00
2022-07-27T01:44:04.383Z,1.00
2022-07-27T01:46:34.121Z,99.90
2022-07-27T01:49:02.625Z,99.90
2022-07-27T01:51:39.499Z,1.00
2022-07-27T01:54:12.584Z,99.90
2022-07-27T01:56:41.131Z,1.00
2022-07-27T01:59:16.753Z,99.90
2022-07-27T02:01:45.318Z,99.90
2022-07-27T02:04:13.530Z,1.00
2022-07-27T02:06:41.891Z,2.70
2022-07-27T02:09:11.781Z,99.90
2022-07-27T02:11:57.722Z,1.00
2022-07-27T02:14:26.096Z,99.90
2022-07-27T02:16:57.655Z,99.90
2022-07-27T02:19:26.675Z,1.00
2022-07-27T02:21:54.750Z,99.90
2022-07-27T02:24:24.039Z,99.90
2022-07-27T02:26:52.069Z,99.90
2022-07-27T02:29:19.956Z,99.90
2022-07-27T02:31:48.091Z,99.90
2022-07-27T02:34:16.295Z,97.00
2022-07-27T02:36:44.192Z,95.60
2022-07-27T02:39:12.494Z,99.90
2022-07-27T02:41:42.546Z,99.90
2022-07-27T02:44:10.596Z,1.00
2022-07-27T02:46:38.611Z,58.00
2022-07-27T02:49:06.651Z,16.90
2022-07-27T02:51:34.710Z,99.90
2022-07-27T02:54:02.686Z,99.90
2022-07-27T02:56:30.835Z,99.90
2022-07-27T02:59:00.136Z,3.00
2022-07-27T03:01:28.172Z,99.90
2022-07-27T03:03:56.147Z,99.90
2022-07-27T03:06:24.646Z,1.00
2022-07-27T03:08:52.603Z,99.90
2022-07-27T03:11:20.528Z,99.90
2022-07-27T03:13:49.212Z,99.90
2022-07-27T03:16:36.268Z,99.90
2022-07-27T03:19:30.134Z,27.70
2022-07-27T03:22:08.246Z,99.90
2022-07-27T03:24:46.329Z,4.00
2022-07-27T03:27:31.120Z,99.90
2022-07-27T03:30:16.707Z,99.90
2022-07-27T03:33:13.450Z,1.00
2022-07-27T03:36:38.508Z,92.70
2022-07-27T03:38:40.220Z,28.60
2022-07-27T03:41:08.226Z,99.90
2022-07-27T03:43:37.064Z,99.90
2022-07-27T03:46:05.452Z,99.90
2022-07-27T03:48:41.277Z,1.00
2022-07-27T03:51:24.393Z,99.90
2022-07-27T03:53:52.452Z,1.00
2022-07-27T03:56:20.407Z,1.00
2022-07-27T03:58:48.572Z,1.00
2022-07-27T04:01:16.715Z,99.90
2022-07-27T04:03:46.177Z,99.90
2022-07-27T04:06:14.400Z,1.00
2022-07-27T04:08:42.438Z,1.00
2022-07-27T04:11:11.497Z,99.90
2022-07-27T04:13:43.442Z,99.90
2022-07-27T04:16:13.841Z,99.90
2022-07-27T04:18:42.078Z,99.90
2022-07-27T04:21:12.009Z,68.40
2022-07-27T04:23:40.488Z,99.90
2022-07-27T04:26:11.501Z,1.00
2022-07-27T04:28:39.716Z,99.90
2022-07-27T04:31:07.710Z,99.90
2022-07-27T04:33:35.823Z,4.90
2022-07-27T04:36:03.995Z,99.90
2022-07-27T04:38:33.674Z,1.00
2022-07-27T04:41:01.882Z,1.00
2022-07-27T04:43:29.935Z,1.00
2022-07-27T04:45:58.262Z,1.00
2022-07-27T04:48:26.376Z,15.60
2022-07-27T04:50:54.426Z,1.00
2022-07-27T04:53:24.658Z,99.90
2022-07-27T04:55:54.432Z,5.50
2022-07-27T04:58:22.391Z,99.90
2022-07-27T05:00:50.538Z,99.90
2022-07-27T05:03:19.271Z,1.00
2022-07-27T05:05:50.003Z,99.90
2022-07-27T05:08:19.302Z,99.90
2022-07-27T05:10:47.491Z,99.90
2022-07-27T05:13:18.295Z,99.90
2022-07-27T05:15:54.490Z,99.90
2022-07-27T05:18:24.141Z,99.90
2022-07-27T05:20:52.125Z,1.00
2022-07-27T05:23:20.165Z,99.90
2022-07-27T05:25:48.162Z,1.00
2022-07-27T05:28:17.544Z,99.90
2022-07-27T05:30:45.543Z,1.00
2022-07-27T05:33:13.556Z,1.00
2022-07-27T05:35:41.554Z,1.00
2022-07-27T05:38:09.704Z,99.90
2022-07-27T05:40:37.772Z,1.00
2022-07-27T05:43:06.109Z,99.90
2022-07-27T05:45:35.803Z,99.90
2022-07-27T05:48:03.835Z,99.90
2022-07-27T05:50:31.798Z,1.00
2022-07-27T05:53:00.664Z,99.90
2022-07-27T05:55:29.144Z,99.90
2022-07-27T05:57:59.271Z,1.00
2022-07-27T06:00:33.867Z,1.00
2022-07-27T06:03:06.049Z,99.90
2022-07-27T06:05:34.314Z,99.90
2022-07-27T06:08:06.571Z,99.90
2022-07-27T06:10:36.665Z,99.90
2022-07-27T06:13:15.925Z,1.00
2022-07-27T06:15:44.439Z,1.00
2022-07-27T06:18:20.491Z,84.40
2022-07-27T06:20:48.525Z,79.70
2022-07-27T06:23:16.467Z,99.90
2022-07-27T06:25:44.466Z,99.90
2022-07-27T06:28:13.846Z,1.00
2022-07-27T06:30:43.121Z,99.90
2022-07-27T06:33:12.634Z,99.90
2022-07-27T06:35:42.645Z,99.90
2022-07-27T06:38:12.051Z,1.00
2022-07-27T06:40:40.105Z,1.00
2022-07-27T06:43:08.021Z,1.00
2022-07-27T06:45:35.933Z,1.00
2022-07-27T06:48:04.069Z,43.60
2022-07-27T06:50:32.029Z,1.00
2022-07-27T06:53:01.319Z,99.90
2022-07-27T06:55:29.891Z,1.00
2022-07-27T06:57:57.776Z,92.20
2022-07-27T07:00:26.511Z,1.00
2022-07-27T07:02:59.424Z,1.00
2022-07-27T07:05:27.876Z,98.10
2022-07-27T07:07:56.183Z,31.10
2022-07-27T07:10:27.185Z,1.00
2022-07-27T07:12:56.569Z,1.00
2022-07-27T07:15:25.600Z,3.40
2022-07-27T07:17:54.287Z,13.50
2022-07-27T07:20:22.601Z,39.20
2022-07-27T07:22:51.969Z,39.00
2022-07-27T07:25:20.773Z,38.10
2022-07-27T07:27:50.414Z,37.40
2022-07-27T07:30:19.074Z,38.10
2022-07-27T07:32:47.452Z,37.70
2022-07-27T07:35:15.610Z,37.60
2022-07-27T07:37:43.728Z,38.40
2022-07-27T07:40:41.366Z,37.50
2022-07-27T07:43:03.728Z,36.60
2022-07-27T07:45:34.135Z,36.00
2022-07-27T07:48:02.405Z,37.40
2022-07-27T07:50:30.525Z,34.70
2022-07-27T07:52:58.595Z,34.40
2022-07-27T07:55:29.243Z,33.00
2022-07-27T07:58:00.048Z,30.50
2022-07-27T08:00:31.114Z,29.90
2022-07-27T08:02:59.495Z,28.10
2022-07-27T08:05:28.185Z,28.70
2022-07-27T08:07:56.304Z,27.60
2022-07-27T08:10:24.554Z,26.00
2022-07-27T08:12:55.442Z,25.40
2022-07-27T08:15:34.645Z,25.60
2022-07-27T08:18:05.878Z,26.00
2022-07-27T08:20:34.220Z,25.40
2022-07-27T08:23:02.766Z,24.70
2022-07-27T08:25:31.150Z,23.70
2022-07-27T08:27:59.505Z,23.60
2022-07-27T08:30:28.396Z,22.00
2022-07-27T08:33:01.185Z,21.00
2022-07-27T08:35:31.239Z,20.20
2022-07-27T08:37:59.287Z,20.20
2022-07-27T08:40:39.625Z,19.60
2022-07-27T08:43:10.673Z,19.20
2022-07-27T08:45:39.189Z,18.10
2022-07-27T08:48:07.607Z,14.20
2022-07-27T08:50:37.049Z,14.10
2022-07-27T08:53:07.088Z,14.40
2022-07-27T08:55:36.983Z,15.10
2022-07-27T08:58:05.602Z,15.00
2022-07-27T09:00:35.187Z,14.10
2022-07-27T09:03:04.079Z,13.10
2022-07-27T09:05:37.089Z,12.50
2022-07-27T09:08:13.138Z,12.60
2022-07-27T09:10:41.612Z,13.20
2022-07-27T09:13:22.076Z,13.60
2022-07-27T09:18:40.648Z,14.10
2022-07-27T09:21:13.902Z,14.00
2022-07-27T09:23:45.114Z,14.70
2022-07-27T09:26:30.573Z,14.90
2022-07-27T09:29:02.248Z,15.00
2022-07-27T09:31:31.379Z,16.20
2022-07-27T09:34:01.600Z,15.80
2022-07-27T09:36:31.159Z,16.20
2022-07-27T09:39:03.298Z,15.30
2022-07-27T09:41:42.795Z,15.50
2022-07-27T09:44:31.355Z,14.50
2022-07-27T09:46:59.544Z,15.40
2022-07-27T09:49:29.740Z,13.80
2022-07-27T09:52:00.496Z,13.30
2022-07-27T09:54:44.092Z,13.30
2022-07-27T09:57:12.275Z,11.50
2022-07-27T09:59:40.255Z,11.80
2022-07-27T10:02:08.691Z,11.10
2022-07-27T10:04:37.045Z,10.60
2022-07-27T10:07:08.284Z,10.10
2022-07-27T10:09:43.175Z,10.60
2022-07-27T10:12:11.412Z,7.80
2022-07-27T10:14:39.418Z,8.00
2022-07-27T10:17:10.728Z,6.60
2022-07-27T10:19:46.217Z,5.50
2022-07-27T10:22:14.405Z,6.20
2022-07-27T10:24:44.477Z,4.20
2022-07-27T10:27:20.650Z,3.00
2022-07-27T10:29:49.435Z,1.80
2022-07-27T10:32:25.515Z,2.00
2022-07-27T10:34:53.470Z,1.00
2022-07-27T10:37:26.950Z,1.00
2022-07-27T10:40:12.607Z,1.00
2022-07-27T10:42:41.293Z,1.00
2022-07-27T10:45:11.257Z,1.00
2022-07-27T10:51:36.121Z,1.00
2022-07-27T10:54:21.341Z,1.00
2022-07-27T10:56:51.902Z,1.00
2022-07-27T11:00:12.401Z,1.00
2022-07-27T11:02:42.602Z,1.00
2022-07-27T11:05:32.785Z,1.00
2022-07-27T11:10:49.623Z,1.00
2022-07-27T11:13:20.216Z,1.00
2022-07-27T11:15:55.841Z,1.00
2022-07-27T11:18:28.807Z,1.00
2022-07-27T11:21:18.017Z,1.00
2022-07-27T11:23:52.888Z,1.00
2022-07-27T11:26:21.977Z,1.00
2022-07-27T11:28:52.174Z,1.00
2022-07-27T11:31:45.299Z,1.00
2022-07-27T11:34:09.273Z,1.00
2022-07-27T11:36:40.738Z,1.00
2022-07-27T11:39:14.722Z,1.00
2022-07-27T11:44:38.030Z,1.00
2022-07-27T11:47:07.624Z,1.00
2022-07-27T11:49:35.926Z,1.00
2022-07-27T11:52:06.593Z,1.00
2022-07-27T11:54:36.525Z,1.00
2022-07-27T11:57:06.898Z,1.00
2022-07-27T11:59:37.499Z,1.00
2022-07-27T12:02:07.425Z,1.00
2022-07-27T12:04:36.954Z,1.00
2022-07-27T12:07:07.672Z,1.00
2022-07-27T12:09:39.079Z,1.00
2022-07-27T12:12:13.809Z,1.00
2022-07-27T12:14:45.782Z,1.00
2022-07-27T12:17:22.209Z,1.00
2022-07-27T12:19:55.374Z,1.00
2022-07-27T12:22:28.463Z,1.00
2022-07-27T12:24:57.221Z,1.00
2022-07-27T12:27:27.271Z,1.00
2022-07-27T12:30:00.837Z,1.00
2022-07-27T12:32:31.136Z,1.00
2022-07-27T12:34:59.341Z,1.00
2022-07-27T12:37:31.968Z,1.00
2022-07-27T12:40:00.885Z,1.00
2022-07-27T12:42:36.509Z,1.00
2022-07-27T12:45:18.477Z,1.00
2022-07-27T12:47:47.211Z,1.00
2022-07-27T12:50:16.675Z,1.00
2022-07-27T12:52:49.149Z,1.00
2022-07-27T12:55:18.364Z,1.00
2022-07-27T12:57:55.782Z,1.00
2022-07-27T13:00:33.611Z,1.00
2022-07-27T13:03:04.180Z,1.00
2022-07-27T13:05:32.882Z,1.00
2022-07-27T13:08:01.756Z,1.00
2022-07-27T13:10:29.729Z,1.00
2022-07-27T13:12:57.929Z,1.00
2022-07-27T13:15:27.431Z,1.00
2022-07-27T13:17:55.495Z,1.00
2022-07-27T13:20:23.574Z,1.00
2022-07-27T13:22:53.062Z,1.00
2022-07-27T13:25:21.902Z,1.00
2022-07-27T13:27:50.530Z,1.00
2022-07-27T13:30:19.869Z,1.00
2022-07-27T13:32:49.194Z,1.00
2022-07-27T13:35:17.498Z,1.00
2022-07-27T13:37:45.997Z,1.00
2022-07-27T13:40:14.980Z,1.00
2022-07-27T13:42:42.921Z,1.00
2022-07-27T13:45:12.318Z,1.00
2022-07-27T13:47:41.113Z,1.00
2022-07-27T13:50:18.281Z,1.00
2022-07-27T13:52:48.178Z,1.00
2022-07-27T13:55:16.937Z,1.00
2022-07-27T13:57:47.583Z,1.00
2022-07-27T14:00:16.622Z,1.00
2022-07-27T14:02:45.431Z,1.00
2022-07-27T14:05:15.999Z,1.00
2022-07-27T14:07:46.345Z,1.00
2022-07-27T14:10:32.388Z,1.00
2022-07-27T14:13:07.993Z,1.00
2022-07-27T14:15:52.647Z,1.00
2022-07-27T14:18:24.759Z,1.00
2022-07-27T14:20:54.389Z,1.00
2022-07-27T14:23:22.422Z,1.00
2022-07-27T14:25:50.499Z,1.00
2022-07-27T14:28:18.493Z,1.00
2022-07-27T14:30:47.095Z,1.00
2022-07-27T14:33:15.330Z,1.00
2022-07-27T14:35:43.337Z,1.00
2022-07-27T14:38:12.627Z,1.00
2022-07-27T14:40:41.308Z,1.00
2022-07-27T14:43:10.300Z,1.00
2022-07-27T14:45:44.417Z,1.00
2022-07-27T14:48:20.377Z,1.00
2022-07-27T14:50:53.161Z,1.00
2022-07-27T14:53:22.727Z,1.00
2022-07-27T14:55:50.670Z,1.00
2022-07-27T14:58:18.703Z,1.00
2022-07-27T15:00:46.956Z,1.00
2022-07-27T15:03:15.254Z,99.90
2022-07-27T15:05:49.564Z,99.90
2022-07-27T15:08:19.123Z,99.90
2022-07-27T15:10:49.137Z,99.90
2022-07-27T15:13:17.694Z,99.90
2022-07-27T15:15:48.275Z,99.90
2022-07-27T15:18:18.907Z,99.90
2022-07-27T15:20:47.026Z,99.90
2022-07-27T15:23:15.067Z,99.90
2022-07-27T15:25:43.061Z,99.90
2022-07-27T15:28:12.763Z,99.90
2022-07-27T15:30:41.020Z,99.90
2022-07-27T15:33:08.897Z,99.90
2022-07-27T15:35:37.054Z,99.90
2022-07-27T15:38:05.313Z,99.90
2022-07-27T15:40:39.188Z,99.90
2022-07-27T15:43:11.664Z,99.90
2022-07-27T15:45:42.477Z,99.90
2022-07-27T15:48:12.328Z,99.90
2022-07-27T15:50:41.986Z,99.90
2022-07-27T15:53:10.925Z,99.90
2022-07-27T15:55:39.054Z,99.90
2022-07-27T15:58:08.239Z,99.90
2022-07-27T16:00:40.709Z,99.90
2022-07-27T16:03:10.934Z,99.90
2022-07-27T16:05:40.331Z,99.90
2022-07-27T16:08:09.710Z,99.90
2022-07-27T16:10:37.947Z,99.90
2022-07-27T16:13:06.473Z,99.90
2022-07-27T16:15:52.645Z,99.90
2022-07-27T16:18:22.200Z,99.90
2022-07-27T16:20:50.208Z,99.90
2022-07-27T16:23:21.384Z,99.90
2022-07-27T16:26:07.533Z,99.90
2022-07-27T16:28:39.410Z,99.90
2022-07-27T16:31:08.376Z,99.90
2022-07-27T16:33:38.354Z,99.90
2022-07-27T16:36:08.455Z,99.90
2022-07-27T16:38:37.105Z,99.90
2022-07-27T16:41:07.311Z,99.90
2022-07-27T16:43:38.011Z,99.90
2022-07-27T16:46:08.411Z,99.90
2022-07-27T16:48:42.579Z,99.90
2022-07-27T16:51:15.340Z,99.90
2022-07-27T16:53:44.940Z,99.90
2022-07-27T16:56:14.499Z,99.90
2022-07-27T16:58:43.375Z,99.90
2022-07-27T17:01:22.394Z,99.90
2022-07-27T17:03:56.806Z,99.90
2022-07-27T17:06:26.055Z,99.90
2022-07-27T17:08:55.029Z,99.90
2022-07-27T17:11:26.168Z,99.90
2022-07-27T17:13:59.076Z,99.90
2022-07-27T17:16:29.033Z,99.90
2022-07-27T17:18:58.541Z,99.90
2022-07-27T17:21:26.790Z,99.90
2022-07-27T17:23:55.055Z,99.90
2022-07-27T17:26:25.006Z,99.90
2022-07-27T17:28:59.331Z,99.90
2022-07-27T17:31:28.358Z,99.90
2022-07-27T17:33:58.266Z,99.90
2022-07-27T17:36:26.848Z,99.90
2022-07-27T17:38:54.812Z,99.90
2022-07-27T17:41:24.925Z,99.90
2022-07-27T17:43:54.914Z,99.90
2022-07-27T17:46:24.481Z,99.90
2022-07-27T17:48:53.041Z,99.90
2022-07-27T17:51:25.126Z,99.90
2022-07-27T17:53:53.201Z,99.90
2022-07-27T17:56:21.287Z,99.90
2022-07-27T17:58:49.266Z,99.90
2022-07-27T18:01:46.630Z,99.90
2022-07-27T18:04:08.991Z,99.90
2022-07-27T18:06:38.349Z,99.90
2022-07-27T18:09:07.350Z,99.90
2022-07-27T18:11:35.625Z,99.90
2022-07-27T18:14:03.587Z,99.90
2022-07-27T18:16:36.432Z,99.90
2022-07-27T18:19:07.918Z,99.90
2022-07-27T18:21:41.217Z,99.90
2022-07-27T18:24:10.457Z,99.90
2022-07-27T18:26:38.827Z,99.90
2022-07-27T18:29:06.994Z,99.90
2022-07-27T18:31:35.104Z,99.90
2022-07-27T18:34:05.824Z,99.90
2022-07-27T18:36:38.759Z,99.90
2022-07-27T18:39:07.997Z,99.90
2022-07-27T18:41:37.832Z,99.90
2022-07-27T18:44:06.329Z,99.90
2022-07-27T18:46:34.319Z,99.90
2022-07-27T18:49:02.447Z,99.90
2022-07-27T18:51:31.734Z,99.90
2022-07-27T18:54:00.391Z,99.90
2022-07-27T18:56:29.869Z,99.90
2022-07-27T18:58:57.802Z,99.90
2022-07-27T19:01:25.836Z,99.90
2022-07-27T19:03:53.901Z,99.90
2022-07-27T19:06:22.628Z,99.90
2022-07-27T19:08:52.551Z,99.90
2022-07-27T19:11:20.904Z,99.90
2022-07-27T19:13:50.164Z,99.90
2022-07-27T19:16:18.195Z,99.90
2022-07-27T19:18:46.166Z,99.90
2022-07-27T19:21:14.832Z,99.90
2022-07-27T19:23:42.847Z,99.90
2022-07-27T19:26:10.786Z,99.90
2022-07-27T19:28:39.019Z,99.90
2022-07-27T19:31:22.822Z,99.90
2022-07-27T19:33:52.236Z,99.90
2022-07-27T19:36:20.492Z,99.90
2022-07-27T19:38:48.653Z,99.90
2022-07-27T19:41:20.259Z,99.90
2022-07-27T19:43:48.912Z,99.90
2022-07-27T19:46:18.985Z,99.90
2022-07-27T19:48:50.322Z,99.90
2022-07-27T19:51:18.394Z,99.90
2022-07-27T19:53:46.365Z,99.90
2022-07-27T19:56:14.548Z,99.90
2022-07-27T19:58:42.802Z,99.90
2022-07-27T20:01:11.478Z,99.90
2022-07-27T20:04:22.625Z,99.90
2022-07-27T20:07:02.915Z,99.90
2022-07-27T20:09:30.880Z,99.90
2022-07-27T20:12:00.614Z,99.90
2022-07-27T20:14:28.678Z,99.90
2022-07-27T20:16:56.740Z,99.90
2022-07-27T20:19:26.747Z,99.90
2022-07-27T20:21:57.127Z,99.90
2022-07-27T20:24:25.104Z,99.90
2022-07-27T20:26:53.083Z,99.90
2022-07-27T20:29:21.118Z,99.90
2022-07-27T20:31:49.446Z,99.90
2022-07-27T20:34:20.777Z,99.90
2022-07-27T20:36:50.165Z,99.90
2022-07-27T20:39:18.657Z,99.90
2022-07-27T20:41:46.821Z,99.90
2022-07-27T20:44:15.157Z,99.90
2022-07-27T20:46:43.410Z,99.90
2022-07-27T20:49:11.765Z,99.90
2022-07-27T20:51:41.884Z,99.90
2022-07-27T20:54:11.161Z,99.90
2022-07-27T20:56:39.176Z,99.90
2022-07-27T20:59:08.880Z,99.90
2022-07-27T21:01:44.461Z,99.90
2022-07-27T21:04:12.762Z,99.90
2022-07-27T21:06:40.633Z,99.90
2022-07-27T21:09:10.055Z,99.90
2022-07-27T21:11:38.258Z,99.90
2022-07-27T21:14:07.629Z,99.90
2022-07-27T21:16:35.790Z,99.90
2022-07-27T21:19:04.012Z,99.90
2022-07-27T21:21:32.043Z,99.90
2022-07-27T21:24:20.836Z,99.90
2022-07-27T21:26:51.775Z,99.90
2022-07-27T21:29:21.364Z,99.90
2022-07-27T21:31:50.366Z,99.90
2022-07-27T21:34:20.425Z,99.90
2022-07-27T21:36:49.714Z,99.90
2022-07-27T21:39:18.962Z,99.90
2022-07-27T21:41:47.228Z,99.90
2022-07-27T21:44:16.886Z,99.90
2022-07-27T21:46:45.281Z,99.90
2022-07-27T21:49:14.229Z,99.90
2022-07-27T21:51:42.317Z,99.90
2022-07-27T21:54:10.457Z,99.90
2022-07-27T21:56:41.094Z,99.90
2022-07-27T21:59:09.919Z,99.90
2022-07-27T22:01:39.253Z,99.90
2022-07-27T22:04:07.338Z,99.90
2022-07-27T22:06:35.881Z,99.90
2022-07-27T22:09:04.412Z,99.90
2022-07-27T22:11:32.579Z,99.90
2022-07-27T22:14:00.678Z,99.90
2022-07-27T22:16:28.688Z,99.90
2022-07-27T22:18:58.127Z,99.90
2022-07-27T22:21:26.429Z,99.90
2022-07-27T22:23:54.283Z,99.90
2022-07-27T22:26:22.457Z,99.90
2022-07-27T22:28:50.541Z,99.90
2022-07-27T22:31:22.135Z,99.90
2022-07-27T22:33:51.717Z,99.90
2022-07-27T22:36:21.156Z,99.90
2022-07-27T22:38:49.546Z,99.90
2022-07-27T22:41:17.482Z,99.90
2022-07-27T22:43:46.527Z,99.90
2022-07-27T22:46:14.673Z,99.90
2022-07-27T22:48:42.750Z,99.90
2022-07-27T22:51:10.685Z,99.90
2022-07-27T22:53:40.045Z,99.90
2022-07-27T22:56:08.015Z,99.90
2022-07-27T22:58:36.005Z,99.90
2022-07-27T23:01:04.014Z,99.90
2022-07-27T23:03:32.221Z,99.90
2022-07-27T23:06:00.119Z,1.00
2022-07-27T23:08:28.144Z,1.00
2022-07-27T23:10:57.595Z,1.00
2022-07-27T23:13:25.674Z,1.00
2022-07-27T23:16:01.681Z,1.00
2022-07-27T23:18:29.593Z,1.00
2022-07-27T23:20:57.563Z,1.00
2022-07-27T23:23:27.626Z,1.00
2022-07-27T23:25:57.036Z,1.00
2022-07-27T23:28:25.878Z,1.00
2022-07-27T23:30:53.808Z,1.00
2022-07-27T23:33:21.809Z,1.00
2022-07-27T23:35:49.736Z,1.00
2022-07-27T23:38:17.662Z,1.00
2022-07-27T23:40:45.634Z,1.00
2022-07-27T23:43:14.942Z,1.00
2022-07-27T23:45:42.857Z,1.00
2022-07-27T23:48:11.349Z,1.00
2022-07-27T23:50:39.244Z,1.00
2022-07-27T23:53:07.090Z,1.00
2022-07-27T23:55:37.493Z,1.00
2022-07-27T23:58:05.608Z,1.00
